createdAt,value
2018-04-15T00:01:30.777Z,1012.60
2018-04-15T00:02:30.808Z,1012.60
2018-04-15T00:03:30.617Z,1012.59
2018-04-15T00:04:30.650Z,1012.57
2018-04-15T00:05:30.458Z,1012.59
2018-04-15T00:06:30.436Z,1012.60
2018-04-15T00:07:30.312Z,1012.60
2018-04-15T00:08:30.339Z,1012.60
2018-04-15T00:09:30.161Z,1012.60
2018-04-15T00:10:30.151Z,1012.63
2018-04-15T00:11:30.013Z,1012.57
2018-04-15T00:12:29.956Z,1012.57
2018-04-15T00:13:29.819Z,1012.58
2018-04-15T00:14:29.921Z,1012.54
2018-04-15T00:15:29.692Z,1012.57
2018-04-15T00:16:29.724Z,1012.55
2018-04-15T00:17:29.523Z,1012.54
2018-04-15T00:18:29.485Z,1012.52
2018-04-15T00:19:29.369Z,1012.52
2018-04-15T00:20:29.514Z,1012.55
2018-04-15T00:21:29.213Z,1012.57
2018-04-15T00:22:29.202Z,1012.59
2018-04-15T00:23:29.040Z,1012.59
2018-04-15T00:24:29.014Z,1012.61
2018-04-15T00:25:28.902Z,1012.60
2018-04-15T00:26:28.972Z,1012.55
2018-04-15T00:27:28.737Z,1012.54
2018-04-15T00:28:28.742Z,1012.54
2018-04-15T00:29:28.572Z,1012.50
2018-04-15T00:30:28.603Z,1012.53
2018-04-15T00:31:28.412Z,1012.48
2018-04-15T00:32:28.464Z,1012.49
2018-04-15T00:33:28.265Z,1012.52
2018-04-15T00:34:28.268Z,1012.53
2018-04-15T00:35:28.122Z,1012.48
2018-04-15T00:36:28.063Z,1012.47
2018-04-15T00:37:27.948Z,1012.44
2018-04-15T00:38:27.983Z,1012.44
2018-04-15T00:39:27.784Z,1012.47
2018-04-15T00:40:27.828Z,1012.41
2018-04-15T00:41:27.629Z,1012.46
2018-04-15T00:42:27.605Z,1012.39
2018-04-15T00:43:27.495Z,1012.37
2018-04-15T00:44:27.514Z,1012.32
2018-04-15T00:45:27.313Z,1012.34
2018-04-15T00:46:27.358Z,1012.32
2018-04-15T00:47:27.173Z,1012.31
2018-04-15T00:48:27.167Z,1012.31
2018-04-15T00:49:26.999Z,1012.36
2018-04-15T00:50:27.046Z,1012.31
2018-04-15T00:51:26.878Z,1012.32
2018-04-15T00:52:26.842Z,1012.32
2018-04-15T00:53:26.706Z,1012.30
2018-04-15T00:54:26.654Z,1012.33
2018-04-15T00:55:26.549Z,1012.29
2018-04-15T00:56:26.611Z,1012.29
2018-04-15T00:57:26.375Z,1012.28
2018-04-15T00:58:26.386Z,1012.28
2018-04-15T00:59:26.227Z,1012.26
2018-04-15T01:00:26.180Z,1012.21
2018-04-15T01:01:26.084Z,1012.26
2018-04-15T01:02:26.094Z,1012.20
2018-04-15T01:03:25.906Z,1012.20
2018-04-15T01:04:25.900Z,1012.21
2018-04-15T01:05:25.744Z,1012.19
2018-04-15T01:06:25.740Z,1012.17
2018-04-15T01:07:25.596Z,1012.17
2018-04-15T01:08:25.622Z,1012.16
2018-04-15T01:09:25.434Z,1012.13
2018-04-15T01:10:25.434Z,1012.15
2018-04-15T01:11:25.278Z,1012.12
2018-04-15T01:12:25.265Z,1012.09
2018-04-15T01:13:25.126Z,1012.08
2018-04-15T01:14:25.147Z,1012.03
2018-04-15T01:15:24.963Z,1012.07
2018-04-15T01:16:24.968Z,1012.10
2018-04-15T01:17:24.827Z,1012.12
2018-04-15T01:18:24.763Z,1012.06
2018-04-15T01:19:24.651Z,1012.10
2018-04-15T01:20:24.665Z,1012.06
2018-04-15T01:21:24.495Z,1012.01
2018-04-15T01:22:24.513Z,1012.02
2018-04-15T01:23:24.331Z,1012.04
2018-04-15T01:24:24.391Z,1012.01
2018-04-15T01:25:24.176Z,1012.02
2018-04-15T01:26:24.249Z,1012.02
2018-04-15T01:27:24.057Z,1012.00
2018-04-15T01:28:24.030Z,1012.02
2018-04-15T01:29:23.865Z,1012.00
2018-04-15T01:30:23.915Z,1011.98
2018-04-15T01:31:23.730Z,1011.98
2018-04-15T01:32:23.773Z,1011.94
2018-04-15T01:33:23.561Z,1011.98
2018-04-15T01:34:23.530Z,1011.96
2018-04-15T01:35:23.414Z,1011.98
2018-04-15T01:36:23.447Z,1011.91
2018-04-15T01:37:23.266Z,1011.91
2018-04-15T01:38:23.862Z,1011.92
2018-04-15T01:39:23.082Z,1011.88
2018-04-15T01:40:23.072Z,1011.92
2018-04-15T01:41:22.931Z,1011.94
2018-04-15T01:42:22.981Z,1011.88
2018-04-15T01:43:22.787Z,1011.85
2018-04-15T01:44:22.778Z,1011.90
2018-04-15T01:45:22.612Z,1011.89
2018-04-15T01:46:22.591Z,1011.86
2018-04-15T01:47:22.446Z,1011.89
2018-04-15T01:48:22.438Z,1011.85
2018-04-15T01:49:22.294Z,1011.87
2018-04-15T01:50:22.303Z,1011.82
2018-04-15T01:51:22.180Z,1011.83
2018-04-15T01:52:22.122Z,1011.78
2018-04-15T01:53:21.995Z,1011.76
2018-04-15T01:54:21.923Z,1011.76
2018-04-15T01:55:21.838Z,1011.75
2018-04-15T01:56:21.840Z,1011.71
2018-04-15T01:57:21.679Z,1011.75
2018-04-15T01:58:21.719Z,1011.77
2018-04-15T01:59:21.504Z,1011.78
2018-04-15T02:00:21.551Z,1011.71
2018-04-15T02:01:21.348Z,1011.74
2018-04-15T02:02:21.365Z,1011.73
2018-04-15T02:03:21.224Z,1011.71
2018-04-15T02:04:21.174Z,1011.68
2018-04-15T02:05:21.034Z,1011.68
2018-04-15T02:06:21.084Z,1011.69
2018-04-15T02:07:20.879Z,1011.70
2018-04-15T02:08:20.925Z,1011.70
2018-04-15T02:09:20.727Z,1011.73
2018-04-15T02:10:20.700Z,1011.69
2018-04-15T02:11:20.596Z,1011.71
2018-04-15T02:12:20.611Z,1011.66
2018-04-15T02:13:20.428Z,1011.67
2018-04-15T02:14:20.446Z,1011.65
2018-04-15T02:15:20.246Z,1011.64
2018-04-15T02:16:20.225Z,1011.65
2018-04-15T02:17:20.088Z,1011.61
2018-04-15T02:18:20.063Z,1011.59
2018-04-15T02:19:19.936Z,1011.59
2018-04-15T02:20:19.956Z,1011.58
2018-04-15T02:21:19.770Z,1011.59
2018-04-15T02:22:19.773Z,1011.59
2018-04-15T02:23:19.637Z,1011.60
2018-04-15T02:24:19.604Z,1011.60
2018-04-15T02:25:19.476Z,1011.63
2018-04-15T02:26:19.486Z,1011.61
2018-04-15T02:27:19.302Z,1011.61
2018-04-15T02:28:19.295Z,1011.57
2018-04-15T02:29:19.165Z,1011.63
2018-04-15T02:30:19.197Z,1011.55
2018-04-15T02:31:19.012Z,1011.56
2018-04-15T02:32:19.005Z,1011.55
2018-04-15T02:33:18.829Z,1011.58
2018-04-15T02:34:18.878Z,1011.57
2018-04-15T02:35:18.684Z,1011.52
2018-04-15T02:36:18.728Z,1011.50
2018-04-15T02:37:18.511Z,1011.46
2018-04-15T02:38:18.545Z,1011.43
2018-04-15T02:39:18.378Z,1011.45
2018-04-15T02:40:18.339Z,1011.40
2018-04-15T02:41:18.199Z,1011.45
2018-04-15T02:42:18.255Z,1011.45
2018-04-15T02:43:18.052Z,1011.45
2018-04-15T02:44:18.092Z,1011.44
2018-04-15T02:45:17.881Z,1011.46
2018-04-15T02:46:17.872Z,1011.51
2018-04-15T02:47:17.842Z,1011.54
2018-04-15T02:48:17.676Z,1011.54
2018-04-15T02:49:17.563Z,1011.55
2018-04-15T02:50:17.682Z,1011.58
2018-04-15T02:51:17.407Z,1011.58
2018-04-15T02:52:17.403Z,1011.60
2018-04-15T02:53:17.249Z,1011.57
2018-04-15T02:54:17.200Z,1011.57
2018-04-15T02:55:17.103Z,1011.53
2018-04-15T02:56:17.115Z,1011.56
2018-04-15T02:57:16.930Z,1011.53
2018-04-15T02:58:16.934Z,1011.52
2018-04-15T02:59:16.779Z,1011.48
2018-04-15T03:00:16.763Z,1011.47
2018-04-15T03:01:16.647Z,1011.46
2018-04-15T03:02:16.647Z,1011.41
2018-04-15T03:03:16.452Z,1011.44
2018-04-15T03:04:16.463Z,1011.46
2018-04-15T03:05:16.324Z,1011.40
2018-04-15T03:06:16.252Z,1011.42
2018-04-15T03:07:16.156Z,1011.43
2018-04-15T03:09:58.314Z,1011.45
2018-04-15T03:10:58.297Z,1011.45
2018-04-15T03:11:58.168Z,1011.47
2018-04-15T03:12:58.195Z,1011.44
2018-04-15T03:13:58.015Z,1011.42
2018-04-15T03:14:57.984Z,1011.42
2018-04-15T03:15:57.857Z,1011.40
2018-04-15T03:16:57.798Z,1011.42
2018-04-15T03:17:57.680Z,1011.42
2018-04-15T03:18:57.713Z,1011.44
2018-04-15T03:19:57.574Z,1011.39
2018-04-15T03:20:57.551Z,1011.35
2018-04-15T03:21:57.364Z,1011.41
2018-04-15T03:22:57.892Z,1011.35
2018-04-15T03:23:57.201Z,1011.35
2018-04-15T03:24:57.238Z,1011.31
2018-04-15T03:25:57.063Z,1011.33
2018-04-15T03:26:57.039Z,1011.30
2018-04-15T03:27:56.891Z,1011.30
2018-04-15T03:28:56.854Z,1011.26
2018-04-15T03:29:56.754Z,1011.34
2018-04-15T03:30:56.796Z,1011.36
2018-04-15T03:31:56.572Z,1011.34
2018-04-15T03:32:56.576Z,1011.38
2018-04-15T03:33:56.413Z,1011.31
2018-04-15T03:34:56.384Z,1011.28
2018-04-15T03:35:56.255Z,1011.26
2018-04-15T03:36:56.325Z,1011.22
2018-04-15T03:37:56.092Z,1011.20
2018-04-15T03:38:56.102Z,1011.17
2018-04-15T03:39:55.939Z,1011.17
2018-04-15T03:40:55.937Z,1011.19
2018-04-15T03:41:55.775Z,1011.18
2018-04-15T03:42:55.809Z,1011.17
2018-04-15T03:43:55.630Z,1011.17
2018-04-15T03:44:55.625Z,1011.11
2018-04-15T03:45:55.590Z,1011.11
2018-04-15T03:46:55.432Z,1011.08
2018-04-15T03:47:55.317Z,1011.09
2018-04-15T03:48:55.339Z,1011.14
2018-04-15T03:49:55.152Z,1011.15
2018-04-15T03:50:55.161Z,1011.18
2018-04-15T03:51:54.986Z,1011.20
2018-04-15T03:52:55.012Z,1011.14
2018-04-15T03:53:54.836Z,1011.20
2018-04-15T03:54:54.878Z,1011.23
2018-04-15T03:55:54.699Z,1011.25
2018-04-15T03:56:54.679Z,1011.22
2018-04-15T03:57:54.538Z,1011.25
2018-04-15T03:58:54.555Z,1011.28
2018-04-15T03:59:54.352Z,1011.29
2018-04-15T04:00:54.399Z,1011.28
2018-04-15T04:01:54.200Z,1011.26
2018-04-15T04:02:54.248Z,1011.30
2018-04-15T04:03:54.054Z,1011.32
2018-04-15T04:04:54.021Z,1011.32
2018-04-15T04:05:53.889Z,1011.38
2018-04-15T04:06:53.871Z,1011.33
2018-04-15T04:07:53.727Z,1011.31
2018-04-15T04:08:53.745Z,1011.30
2018-04-15T04:09:53.573Z,1011.32
2018-04-15T04:10:53.545Z,1011.29
2018-04-15T04:11:53.413Z,1011.33
2018-04-15T04:12:53.397Z,1011.31
2018-04-15T04:13:53.244Z,1011.30
2018-04-15T04:14:53.262Z,1011.32
2018-04-15T04:15:53.118Z,1011.34
2018-04-15T04:16:53.075Z,1011.38
2018-04-15T04:17:52.949Z,1011.30
2018-04-15T04:18:53.014Z,1011.29
2018-04-15T04:19:52.774Z,1011.27
2018-04-15T04:20:52.793Z,1011.33
2018-04-15T04:21:52.650Z,1011.30
2018-04-15T04:22:52.604Z,1011.30
2018-04-15T04:23:52.481Z,1011.34
2018-04-15T04:24:52.426Z,1011.29
2018-04-15T04:25:52.298Z,1011.29
2018-04-15T04:26:52.317Z,1011.28
2018-04-15T04:27:52.145Z,1011.27
2018-04-15T04:28:52.155Z,1011.25
2018-04-15T04:29:51.993Z,1011.28
2018-04-15T04:30:51.941Z,1011.24
2018-04-15T04:31:51.920Z,1011.27
2018-04-15T04:32:51.854Z,1011.25
2018-04-15T04:33:51.679Z,1011.26
2018-04-15T04:34:51.705Z,1011.23
2018-04-15T04:35:51.508Z,1011.26
2018-04-15T04:36:51.461Z,1011.26
2018-04-15T04:37:51.350Z,1011.24
2018-04-15T04:38:51.377Z,1011.22
2018-04-15T04:39:51.197Z,1011.21
2018-04-15T04:40:51.182Z,1011.21
2018-04-15T04:41:51.030Z,1011.16
2018-04-15T04:42:50.997Z,1011.16
2018-04-15T04:43:50.875Z,1011.19
2018-04-15T04:44:50.933Z,1011.15
2018-04-15T04:45:50.711Z,1011.14
2018-04-15T04:46:50.718Z,1011.15
2018-04-15T04:47:50.552Z,1011.20
2018-04-15T04:48:50.518Z,1011.17
2018-04-15T04:49:50.412Z,1011.14
2018-04-15T04:50:50.459Z,1011.15
2018-04-15T04:51:50.282Z,1011.14
2018-04-15T04:52:50.236Z,1011.12
2018-04-15T04:53:50.083Z,1011.13
2018-04-15T04:54:50.180Z,1011.13
2018-04-15T04:55:49.915Z,1011.08
2018-04-15T04:56:49.957Z,1011.13
2018-04-15T04:57:49.775Z,1011.15
2018-04-15T04:58:49.766Z,1011.12
2018-04-15T04:59:49.625Z,1011.08
2018-04-15T05:00:49.603Z,1011.10
2018-04-15T05:01:49.446Z,1011.06
2018-04-15T05:02:49.485Z,1011.10
2018-04-15T05:03:49.285Z,1011.10
2018-04-15T05:04:49.296Z,1011.07
2018-04-15T05:05:49.155Z,1011.07
2018-04-15T05:06:49.099Z,1011.08
2018-04-15T05:07:48.970Z,1011.08
2018-04-15T05:08:49.015Z,1011.05
2018-04-15T05:09:48.810Z,1011.06
2018-04-15T05:10:48.857Z,1011.04
2018-04-15T05:11:48.649Z,1011.05
2018-04-15T05:12:48.637Z,1011.05
2018-04-15T05:13:48.495Z,1011.03
2018-04-15T05:14:48.544Z,1011.03
2018-04-15T05:15:48.361Z,1011.02
2018-04-15T05:16:48.344Z,1011.03
2018-04-15T05:17:48.171Z,1010.99
2018-04-15T05:18:48.169Z,1010.99
2018-04-15T05:19:48.015Z,1010.99
2018-04-15T05:20:48.307Z,1010.97
2018-04-15T05:21:47.866Z,1010.97
2018-04-15T05:22:47.881Z,1010.96
2018-04-15T05:23:47.697Z,1010.92
2018-04-15T05:24:47.699Z,1010.93
2018-04-15T05:25:47.569Z,1010.93
2018-04-15T05:26:47.497Z,1010.95
2018-04-15T05:27:47.387Z,1010.92
2018-04-15T05:28:47.407Z,1010.92
2018-04-15T05:29:47.223Z,1010.93
2018-04-15T05:30:47.257Z,1010.96
2018-04-15T05:31:47.082Z,1010.96
2018-04-15T05:32:47.029Z,1010.96
2018-04-15T05:33:47.025Z,1010.91
2018-04-15T05:34:46.930Z,1010.90
2018-04-15T05:35:46.757Z,1010.93
2018-04-15T05:36:46.793Z,1010.91
2018-04-15T05:37:46.613Z,1010.92
2018-04-15T05:38:46.959Z,1010.93
2018-04-15T05:39:46.436Z,1010.93
2018-04-15T05:40:46.461Z,1010.93
2018-04-15T05:41:46.289Z,1010.93
2018-04-15T05:42:46.273Z,1010.92
2018-04-15T05:43:46.113Z,1010.90
2018-04-15T05:44:46.077Z,1010.88
2018-04-15T05:45:45.965Z,1010.84
2018-04-15T05:46:46.030Z,1010.88
2018-04-15T05:47:45.794Z,1010.82
2018-04-15T05:48:45.787Z,1010.76
2018-04-15T05:49:45.634Z,1010.78
2018-04-15T05:50:45.614Z,1010.77
2018-04-15T05:51:45.500Z,1010.77
2018-04-15T05:52:45.518Z,1010.71
2018-04-15T05:53:45.365Z,1010.75
2018-04-15T05:54:45.331Z,1010.80
2018-04-15T05:55:45.155Z,1010.77
2018-04-15T05:56:45.202Z,1010.80
2018-04-15T05:57:45.015Z,1010.81
2018-04-15T05:58:45.047Z,1010.83
2018-04-15T05:59:44.856Z,1010.88
2018-04-15T06:00:44.855Z,1010.86
2018-04-15T06:01:44.678Z,1010.83
2018-04-15T06:02:44.706Z,1010.83
2018-04-15T06:03:44.534Z,1010.82
2018-04-15T06:04:44.574Z,1010.76
2018-04-15T06:05:44.369Z,1010.73
2018-04-15T06:06:44.439Z,1010.70
2018-04-15T06:07:44.225Z,1010.68
2018-04-15T06:08:44.200Z,1010.63
2018-04-15T06:09:44.146Z,1010.60
2018-04-15T06:10:44.022Z,1010.52
2018-04-15T06:11:43.889Z,1010.51
2018-04-15T06:12:44.879Z,1010.53
2018-04-15T06:13:43.769Z,1010.54
2018-04-15T06:14:43.711Z,1010.55
2018-04-15T06:15:43.566Z,1010.56
2018-04-15T06:16:43.527Z,1010.55
2018-04-15T06:17:43.429Z,1010.54
2018-04-15T06:18:43.434Z,1010.52
2018-04-15T06:19:43.253Z,1010.46
2018-04-15T06:20:43.250Z,1010.50
2018-04-15T06:21:43.106Z,1010.42
2018-04-15T06:22:43.080Z,1010.39
2018-04-15T06:23:42.937Z,1010.44
2018-04-15T06:24:42.964Z,1010.38
2018-04-15T06:25:42.785Z,1010.34
2018-04-15T06:26:42.793Z,1010.32
2018-04-15T06:27:42.633Z,1010.30
2018-04-15T06:28:42.608Z,1010.27
2018-04-15T06:29:42.464Z,1010.24
2018-04-15T06:30:42.495Z,1010.24
2018-04-15T06:31:42.297Z,1010.26
2018-04-15T06:32:42.306Z,1010.19
2018-04-15T06:33:42.184Z,1010.20
2018-04-15T06:34:42.118Z,1010.20
2018-04-15T06:35:41.989Z,1010.21
2018-04-15T06:36:42.070Z,1010.20
2018-04-15T06:37:41.821Z,1010.12
2018-04-15T06:38:41.829Z,1010.11
2018-04-15T06:39:41.685Z,1010.10
2018-04-15T06:40:41.632Z,1010.09
2018-04-15T06:41:41.507Z,1010.13
2018-04-15T06:42:41.591Z,1010.12
2018-04-15T06:43:41.400Z,1010.09
2018-04-15T06:44:41.358Z,1010.11
2018-04-15T06:45:41.193Z,1010.11
2018-04-15T06:46:41.159Z,1010.13
2018-04-15T06:47:41.064Z,1010.10
2018-04-15T06:48:41.111Z,1010.12
2018-04-15T06:49:40.887Z,1010.13
2018-04-15T06:50:40.880Z,1010.11
2018-04-15T06:51:40.711Z,1010.09
2018-04-15T06:52:40.689Z,1010.08
2018-04-15T06:53:40.584Z,1010.15
2018-04-15T06:54:40.605Z,1010.09
2018-04-15T06:55:40.493Z,1010.09
2018-04-15T06:56:40.410Z,1010.07
2018-04-15T06:57:40.236Z,1010.10
2018-04-15T06:58:40.225Z,1010.01
2018-04-15T06:59:40.117Z,1010.05
2018-04-15T07:00:40.135Z,1010.00
2018-04-15T07:01:39.927Z,1009.99
2018-04-15T07:02:39.944Z,1010.00
2018-04-15T07:03:39.761Z,1010.07
2018-04-15T07:04:39.798Z,1010.02
2018-04-15T07:05:39.707Z,1010.03
2018-04-15T07:06:39.568Z,1010.06
2018-04-15T07:07:39.446Z,1010.00
2018-04-15T07:08:39.502Z,1010.03
2018-04-15T07:09:39.341Z,1010.01
2018-04-15T07:10:39.268Z,1010.02
2018-04-15T07:11:39.150Z,1010.04
2018-04-15T07:12:39.078Z,1010.03
2018-04-15T07:13:38.975Z,1010.05
2018-04-15T07:14:39.023Z,1010.03
2018-04-15T07:15:38.819Z,1009.98
2018-04-15T07:16:38.802Z,1009.96
2018-04-15T07:17:38.649Z,1009.96
2018-04-15T07:18:38.613Z,1009.98
2018-04-15T07:19:38.515Z,1009.87
2018-04-15T07:20:38.565Z,1009.87
2018-04-15T07:21:38.347Z,1009.94
2018-04-15T07:22:38.319Z,1009.91
2018-04-15T07:23:38.194Z,1010.07
2018-04-15T07:24:38.179Z,1010.08
2018-04-15T07:25:38.029Z,1010.07
2018-04-15T07:26:38.053Z,1009.95
2018-04-15T07:27:37.863Z,1010.03
2018-04-15T07:28:37.856Z,1009.99
2018-04-15T07:29:37.707Z,1009.96
2018-04-15T07:30:38.109Z,1010.09
2018-04-15T07:31:37.575Z,1010.13
2018-04-15T07:32:37.578Z,1010.06
2018-04-15T07:33:37.402Z,1010.06
2018-04-15T07:34:37.428Z,1010.04
2018-04-15T07:35:37.257Z,1010.08
2018-04-15T07:36:37.317Z,1010.09
2018-04-15T07:37:37.092Z,1010.15
2018-04-15T07:38:37.101Z,1010.12
2018-04-15T07:39:36.929Z,1010.09
2018-04-15T07:40:36.939Z,1010.06
2018-04-15T07:41:36.883Z,1010.10
2018-04-15T07:42:36.826Z,1010.34
2018-04-15T07:43:36.636Z,1010.12
2018-04-15T07:44:37.146Z,1010.34
2018-04-15T07:45:36.510Z,1010.36
2018-04-15T07:46:36.468Z,1010.17
2018-04-15T07:47:36.306Z,1010.48
2018-04-15T07:48:36.348Z,1010.45
2018-04-15T07:49:36.154Z,1010.42
2018-04-15T07:50:36.164Z,1010.45
2018-04-15T07:51:36.045Z,1010.11
2018-04-15T07:52:35.972Z,1010.04
2018-04-15T07:53:35.838Z,1010.27
2018-04-15T07:54:35.879Z,1010.05
2018-04-15T07:55:36.024Z,1010.23
2018-04-15T07:56:35.715Z,1010.14
2018-04-15T07:57:35.524Z,1010.22
2018-04-15T07:58:35.504Z,1010.29
2018-04-15T07:59:35.383Z,1010.24
2018-04-15T08:00:35.404Z,1010.03
2018-04-15T08:01:35.244Z,1010.21
2018-04-15T08:02:35.284Z,1010.22
2018-04-15T08:03:35.066Z,1010.28
2018-04-15T08:04:35.125Z,1010.29
2018-04-15T08:05:34.928Z,1010.35
2018-04-15T08:06:34.933Z,1010.36
2018-04-15T08:07:34.849Z,1010.33
2018-04-15T08:08:34.745Z,1010.36
2018-04-15T08:09:34.654Z,1010.02
2018-04-15T08:10:34.705Z,1010.03
2018-04-15T08:11:34.555Z,1009.93
2018-04-15T08:12:34.471Z,1010.08
2018-04-15T08:13:34.349Z,1010.16
2018-04-15T08:14:34.369Z,1010.41
2018-04-15T08:15:34.189Z,1010.34
2018-04-15T08:16:34.211Z,1010.37
2018-04-15T08:17:34.026Z,1009.94
2018-04-15T08:18:34.017Z,1010.01
2018-04-15T08:19:33.875Z,1009.94
2018-04-15T08:20:33.911Z,1010.17
2018-04-15T08:21:33.763Z,1009.89
2018-04-15T08:22:33.743Z,1009.89
2018-04-15T08:23:33.665Z,1009.91
2018-04-15T08:24:33.645Z,1010.02
2018-04-15T08:25:33.455Z,1009.91
2018-04-15T08:26:33.501Z,1009.90
2018-04-15T08:27:33.265Z,1009.85
2018-04-15T08:28:33.238Z,1009.73
2018-04-15T08:29:33.129Z,1010.17
2018-04-15T08:30:33.156Z,1010.28
2018-04-15T08:31:32.985Z,1010.06
2018-04-15T08:32:32.996Z,1010.22
2018-04-15T08:33:32.819Z,1010.27
2018-04-15T08:34:32.863Z,1010.31
2018-04-15T08:35:32.679Z,1010.28
2018-04-15T08:36:32.678Z,1010.22
2018-04-15T08:37:32.627Z,1010.30
2018-04-15T08:38:32.494Z,1010.27
2018-04-15T08:39:32.386Z,1009.83
2018-04-15T08:40:32.402Z,1010.26
2018-04-15T08:41:32.215Z,1009.83
2018-04-15T08:42:32.243Z,1010.20
2018-04-15T08:43:32.079Z,1010.23
2018-04-15T08:44:32.194Z,1010.21
2018-04-15T08:45:31.922Z,1010.31
2018-04-15T08:46:31.922Z,1009.86
2018-04-15T08:47:31.797Z,1010.32
2018-04-15T08:48:31.797Z,1010.24
2018-04-15T08:49:31.673Z,1010.37
2018-04-15T08:50:31.662Z,1010.32
2018-04-15T08:51:31.482Z,1010.28
2018-04-15T08:52:31.525Z,1010.34
2018-04-15T08:53:31.353Z,1010.19
2018-04-15T08:54:31.429Z,1010.19
2018-04-15T08:55:31.177Z,1010.17
2018-04-15T08:56:31.175Z,1010.24
2018-04-15T08:57:31.038Z,1010.21
2018-04-15T08:58:31.084Z,1010.16
2018-04-15T08:59:30.908Z,1010.14
2018-04-15T09:00:30.893Z,1010.12
2018-04-15T09:01:30.752Z,1010.14
2018-04-15T09:02:30.812Z,1010.08
2018-04-15T09:03:30.615Z,1010.01
2018-04-15T09:04:30.640Z,1009.99
2018-04-15T09:05:30.452Z,1009.98
2018-04-15T09:06:30.408Z,1009.97
2018-04-15T09:07:30.309Z,1009.93
2018-04-15T09:08:30.340Z,1009.99
2018-04-15T09:09:30.191Z,1009.99
2018-04-15T09:10:30.206Z,1009.98
2018-04-15T09:11:30.016Z,1010.02
2018-04-15T09:12:30.043Z,1010.01
2018-04-15T09:13:29.899Z,1010.01
2018-04-15T09:14:29.914Z,1010.02
2018-04-15T09:15:29.768Z,1010.01
2018-04-15T09:16:29.758Z,1010.01
2018-04-15T09:17:29.585Z,1010.14
2018-04-15T09:18:29.576Z,1010.07
2018-04-15T09:19:29.460Z,1010.06
2018-04-15T09:20:29.773Z,1009.74
2018-04-15T09:21:29.329Z,1009.48
2018-04-15T09:22:29.290Z,1010.04
2018-04-15T09:23:29.174Z,1010.06
2018-04-15T09:24:29.214Z,1010.02
2018-04-15T09:25:29.047Z,1009.77
2018-04-15T09:26:29.047Z,1010.11
2018-04-15T09:27:28.898Z,1010.17
2018-04-15T09:28:28.913Z,1010.12
2018-04-15T09:29:28.762Z,1010.07
2018-04-15T09:30:28.742Z,1010.11
2018-04-15T09:31:28.644Z,1010.18
2018-04-15T09:32:28.659Z,1010.16
2018-04-15T09:33:28.466Z,1010.17
2018-04-15T09:34:28.445Z,1010.13
2018-04-15T09:35:28.344Z,1010.15
2018-04-15T09:36:28.401Z,1010.16
2018-04-15T09:37:28.235Z,1010.20
2018-04-15T09:38:28.172Z,1010.24
2018-04-15T09:39:28.045Z,1010.19
2018-04-15T09:40:28.173Z,1010.24
2018-04-15T09:41:27.937Z,1010.36
2018-04-15T09:42:27.929Z,1010.31
2018-04-15T09:43:27.815Z,1010.27
2018-04-15T09:44:27.796Z,1010.25
2018-04-15T09:45:27.637Z,1010.20
2018-04-15T09:46:27.678Z,1010.17
2018-04-15T09:47:27.516Z,1009.98
2018-04-15T09:48:27.532Z,1010.16
2018-04-15T09:49:27.355Z,1010.10
2018-04-15T09:50:27.315Z,1010.08
2018-04-15T09:51:27.223Z,1010.08
2018-04-15T09:52:27.272Z,1010.08
2018-04-15T09:53:27.084Z,1010.05
2018-04-15T09:54:27.037Z,1010.08
2018-04-15T09:55:26.939Z,1010.11
2018-04-15T09:56:26.965Z,1009.41
2018-04-15T09:57:26.843Z,1009.41
2018-04-15T09:58:26.868Z,1009.40
2018-04-15T09:59:27.505Z,1010.01
2018-04-15T10:00:26.679Z,1009.67
2018-04-15T10:01:26.539Z,1009.94
2018-04-15T10:02:26.632Z,1009.29
2018-04-15T10:03:26.395Z,1010.02
2018-04-15T10:04:26.404Z,1009.82
2018-04-15T10:05:26.265Z,1010.03
2018-04-15T10:06:26.308Z,1009.20
2018-04-15T10:07:26.163Z,1009.93
2018-04-15T10:08:26.110Z,1009.48
2018-04-15T10:09:25.986Z,1009.99
2018-04-15T10:10:26.032Z,1010.01
2018-04-15T10:11:25.853Z,1009.99
2018-04-15T10:12:25.868Z,1009.13
2018-04-15T10:13:25.736Z,1009.08
2018-04-15T10:14:25.737Z,1009.84
2018-04-15T10:15:25.562Z,1009.74
2018-04-15T10:16:25.555Z,1009.81
2018-04-15T10:17:25.425Z,1009.83
2018-04-15T10:18:25.514Z,1009.91
2018-04-15T10:19:25.331Z,1009.83
2018-04-15T10:20:25.277Z,1009.73
2018-04-15T10:21:25.149Z,1009.48
2018-04-15T10:22:25.183Z,1009.87
2018-04-15T10:23:25.013Z,1009.88
2018-04-15T10:24:24.993Z,1009.83
2018-04-15T10:25:24.947Z,1009.83
2018-04-15T10:26:24.907Z,1009.80
2018-04-15T10:27:24.737Z,1009.81
2018-04-15T10:28:24.716Z,1009.79
2018-04-15T10:29:24.626Z,1009.71
2018-04-15T10:30:24.619Z,1009.72
2018-04-15T10:31:24.484Z,1009.71
2018-04-15T10:32:24.533Z,1009.74
2018-04-15T10:33:24.332Z,1009.60
2018-04-15T10:34:24.423Z,1009.72
2018-04-15T10:35:24.189Z,1009.70
2018-04-15T10:36:24.285Z,1008.94
2018-04-15T10:37:24.067Z,1008.96
2018-04-15T10:40:05.956Z,1009.63
2018-04-15T10:41:06.077Z,1009.67
2018-04-15T10:42:05.812Z,1009.65
2018-04-15T11:08:28.384Z,1009.55
2018-04-15T11:09:28.269Z,1009.51
2018-04-15T11:10:28.265Z,1009.49
2018-04-15T11:11:28.139Z,1009.39
2018-04-15T11:12:28.172Z,1008.74
2018-04-15T11:13:28.007Z,1008.74
2018-04-15T11:14:28.018Z,1008.82
2018-04-15T11:15:27.852Z,1009.53
2018-04-15T11:16:27.927Z,1009.58
2018-04-15T11:17:27.721Z,1009.61
2018-04-15T11:18:27.720Z,1009.61
2018-04-15T11:19:27.569Z,1009.65
2018-04-15T11:22:09.491Z,1009.80
2018-04-15T11:24:51.527Z,1008.91
2018-04-15T11:27:33.501Z,1008.72
2018-04-15T11:28:33.502Z,1008.71
2018-04-15T11:29:33.334Z,1008.85
2018-04-15T11:30:33.310Z,1009.71
2018-04-15T11:34:13.497Z,1009.69
2018-04-15T11:35:13.478Z,1009.78
2018-04-15T11:36:13.364Z,1009.75
2018-04-15T11:40:10.033Z,1008.56
2018-04-15T11:41:09.901Z,1008.59
2018-04-15T11:42:09.975Z,1009.91
2018-04-15T11:43:09.787Z,1009.86
2018-04-15T11:44:09.761Z,1010.04
2018-04-15T11:45:09.632Z,1010.15
2018-04-15T11:46:09.658Z,1009.88
2018-04-15T11:47:09.513Z,1009.91
2018-04-15T11:48:09.489Z,1010.24
2018-04-15T11:49:09.355Z,1010.11
2018-04-15T11:50:09.378Z,1010.04
2018-04-15T11:51:09.233Z,1009.79
2018-04-15T11:52:09.291Z,1008.83
2018-04-15T11:53:09.101Z,1008.49
2018-04-15T11:54:09.110Z,1008.42
2018-04-15T11:55:08.975Z,1008.43
2018-04-15T11:56:09.011Z,1008.36
2018-04-15T11:57:08.812Z,1008.34
2018-04-15T11:58:08.871Z,1008.29
2018-04-15T11:59:08.696Z,1008.28
2018-04-15T12:00:08.730Z,1008.28
2018-04-15T12:01:08.551Z,1008.32
2018-04-15T12:02:08.539Z,1008.30
2018-04-15T12:03:08.446Z,1008.29
2018-04-15T12:04:09.411Z,1008.32
2018-04-15T12:05:08.269Z,1008.27
2018-04-15T12:06:08.259Z,1008.21
2018-04-15T12:07:08.164Z,1008.19
2018-04-15T12:08:08.298Z,1008.23
2018-04-15T12:09:07.997Z,1008.22
2018-04-15T12:10:07.992Z,1008.20
2018-04-15T12:11:07.870Z,1008.19
2018-04-15T12:12:07.894Z,1008.23
2018-04-15T12:13:07.747Z,1008.14
2018-04-15T12:14:07.720Z,1008.20
2018-04-15T12:15:07.615Z,1008.20
2018-04-15T12:16:07.606Z,1008.18
2018-04-15T12:17:07.426Z,1008.20
2018-04-15T12:18:07.423Z,1008.09
2018-04-15T12:19:07.297Z,1008.15
2018-04-15T12:20:07.319Z,1008.10
2018-04-15T12:21:07.146Z,1008.20
2018-04-15T12:22:07.127Z,1008.17
2018-04-15T12:23:06.986Z,1008.12
2018-04-15T12:24:06.977Z,1008.14
2018-04-15T12:25:06.839Z,1008.07
2018-04-15T12:26:06.776Z,1008.07
2018-04-15T12:27:06.706Z,1008.09
2018-04-15T12:28:06.664Z,1008.05
2018-04-15T12:29:06.559Z,1008.08
2018-04-15T12:30:06.580Z,1008.08
2018-04-15T12:31:06.385Z,1008.03
2018-04-15T12:32:06.388Z,1008.02
2018-04-15T12:33:06.238Z,1008.00
2018-04-15T12:34:06.230Z,1008.02
2018-04-15T12:35:06.117Z,1007.97
2018-04-15T12:36:06.105Z,1007.95
2018-04-15T12:37:06.027Z,1007.93
2018-04-15T12:38:05.873Z,1007.90
2018-04-15T12:39:05.791Z,1007.92
2018-04-15T12:40:05.841Z,1007.92
2018-04-15T12:41:05.641Z,1007.80
2018-04-15T12:42:05.620Z,1007.87
2018-04-15T12:43:05.488Z,1007.82
2018-04-15T12:44:05.561Z,1007.87
2018-04-15T12:45:05.368Z,1007.77